sensor_id;sensor_type;location;lat;lon;timestamp;pressure;altitude;pressure_sealevel;temperature;humidity
24858;BME280;12935;50.782;6.074;2023-05-08T00:02:29;99887.06;;;15.91;100.00
24858;BME280;12935;50.782;6.074;2023-05-08T00:04:54;99891.38;;;15.92;100.00
24858;BME280;12935;50.782;6.074;2023-05-08T00:07:20;99893.72;;;15.94;100.00
24858;BME280;12935;50.782;6.074;2023-05-08T00:09:45;99891.44;;;15.89;100.00
24858;BME280;12935;50.782;6.074;2023-05-08T00:12:10;99890.31;;;15.86;100.00
24858;BME280;12935;50.782;6.074;2023-05-08T00:14:35;99886.84;;;15.82;100.00
24858;BME280;12935;50.782;6.074;2023-05-08T00:17:01;99893.16;;;15.79;100.00
24858;BME280;12935;50.782;6.074;2023-05-08T00:19:27;99898.19;;;15.61;100.00
24858;BME280;12935;50.782;6.074;2023-05-08T00:21:52;99893.97;;;15.53;100.00
24858;BME280;12935;50.782;6.074;2023-05-08T00:24:17;99897.91;;;15.52;100.00
24858;BME280;12935;50.782;6.074;2023-05-08T00:26:42;99891.97;;;15.57;100.00
24858;BME280;12935;50.782;6.074;2023-05-08T00:29:09;99891.84;;;15.64;100.00
24858;BME280;12935;50.782;6.074;2023-05-08T00:31:35;99894.91;;;15.69;100.00
24858;BME280;12935;50.782;6.074;2023-05-08T00:34:00;99885.19;;;15.61;100.00
24858;BME280;12935;50.782;6.074;2023-05-08T00:36:26;99885.59;;;15.60;100.00
24858;BME280;12935;50.782;6.074;2023-05-08T00:38:51;99891.06;;;15.63;100.00
24858;BME280;12935;50.782;6.074;2023-05-08T00:41:16;99889.28;;;15.50;100.00
24858;BME280;12935;50.782;6.074;2023-05-08T00:43:42;99884.00;;;15.35;100.00
24858;BME280;12935;50.782;6.074;2023-05-08T00:46:07;99884.09;;;15.28;100.00
24858;BME280;12935;50.782;6.074;2023-05-08T00:48:34;99890.28;;;15.36;100.00
24858;BME280;12935;50.782;6.074;2023-05-08T00:51:01;99883.53;;;15.40;100.00
24858;BME280;12935;50.782;6.074;2023-05-08T00:53:29;99894.44;;;15.48;100.00
24858;BME280;12935;50.782;6.074;2023-05-08T00:55:57;99890.91;;;15.47;100.00
24858;BME280;12935;50.782;6.074;2023-05-08T00:58:25;99888.56;;;15.45;100.00
24858;BME280;12935;50.782;6.074;2023-05-08T01:00:52;99895.25;;;15.44;100.00
24858;BME280;12935;50.782;6.074;2023-05-08T01:03:19;99894.84;;;15.46;100.00
24858;BME280;12935;50.782;6.074;2023-05-08T01:05:45;99893.38;;;15.41;100.00
24858;BME280;12935;50.782;6.074;2023-05-08T01:08:10;99896.16;;;15.38;100.00
24858;BME280;12935;50.782;6.074;2023-05-08T01:11:00;99891.81;;;15.40;100.00
24858;BME280;12935;50.782;6.074;2023-05-08T01:16:17;99891.41;;;15.42;100.00
24858;BME280;12935;50.782;6.074;2023-05-08T01:21:52;99900.41;;;15.42;100.00
24858;BME280;12935;50.782;6.074;2023-05-08T01:33:19;99898.19;;;15.34;100.00
24858;BME280;12935;50.782;6.074;2023-05-08T01:35:52;99905.66;;;15.33;100.00
24858;BME280;12935;50.782;6.074;2023-05-08T01:38:30;99908.84;;;15.32;100.00
24858;BME280;12935;50.782;6.074;2023-05-08T01:41:13;99910.75;;;15.35;100.00
24858;BME280;12935;50.782;6.074;2023-05-08T01:46:26;99912.00;;;15.30;100.00
24858;BME280;12935;50.782;6.074;2023-05-08T01:51:26;99912.03;;;15.27;100.00
24858;BME280;12935;50.782;6.074;2023-05-08T01:53:58;99905.47;;;15.21;100.00
24858;BME280;12935;50.782;6.074;2023-05-08T01:56:27;99908.94;;;15.25;100.00
24858;BME280;12935;50.782;6.074;2023-05-08T01:58:54;99910.91;;;15.24;100.00
24858;BME280;12935;50.782;6.074;2023-05-08T02:01:22;99909.72;;;15.25;100.00
24858;BME280;12935;50.782;6.074;2023-05-08T02:03:49;99921.03;;;15.31;100.00
24858;BME280;12935;50.782;6.074;2023-05-08T02:06:17;99919.09;;;15.28;100.00
24858;BME280;12935;50.782;6.074;2023-05-08T02:08:44;99917.63;;;15.23;100.00
24858;BME280;12935;50.782;6.074;2023-05-08T02:11:11;99920.31;;;15.27;100.00
24858;BME280;12935;50.782;6.074;2023-05-08T02:13:38;99910.16;;;15.24;100.00
24858;BME280;12935;50.782;6.074;2023-05-08T02:16:06;99920.38;;;15.23;100.00
24858;BME280;12935;50.782;6.074;2023-05-08T02:18:32;99916.88;;;15.19;100.00
24858;BME280;12935;50.782;6.074;2023-05-08T02:20:59;99921.19;;;15.20;100.00
24858;BME280;12935;50.782;6.074;2023-05-08T02:23:26;99921.19;;;15.20;100.00
24858;BME280;12935;50.782;6.074;2023-05-08T02:25:53;99927.13;;;15.19;100.00
24858;BME280;12935;50.782;6.074;2023-05-08T02:28:21;99933.00;;;15.21;100.00
24858;BME280;12935;50.782;6.074;2023-05-08T02:30:49;99928.63;;;15.23;100.00
24858;BME280;12935;50.782;6.074;2023-05-08T02:33:15;99924.78;;;15.17;100.00
24858;BME280;12935;50.782;6.074;2023-05-08T02:35:43;99920.88;;;15.15;100.00
24858;BME280;12935;50.782;6.074;2023-05-08T02:38:10;99926.00;;;15.13;100.00
24858;BME280;12935;50.782;6.074;2023-05-08T02:40:40;99919.31;;;15.14;100.00
24858;BME280;12935;50.782;6.074;2023-05-08T02:43:08;99923.31;;;15.09;100.00
24858;BME280;12935;50.782;6.074;2023-05-08T02:45:49;99926.41;;;15.11;100.00
24858;BME280;12935;50.782;6.074;2023-05-08T02:52:12;99923.72;;;15.07;100.00
24858;BME280;12935;50.782;6.074;2023-05-08T02:54:09;99927.38;;;14.97;100.00
24858;BME280;12935;50.782;6.074;2023-05-08T02:56:55;99926.25;;;14.95;100.00
24858;BME280;12935;50.782;6.074;2023-05-08T02:59:27;99929.84;;;14.92;100.00
24858;BME280;12935;50.782;6.074;2023-05-08T03:02:14;99930.22;;;14.94;100.00
24858;BME280;12935;50.782;6.074;2023-05-08T03:04:49;99930.63;;;14.92;100.00
24858;BME280;12935;50.782;6.074;2023-05-08T03:07:15;99925.16;;;14.89;100.00
24858;BME280;12935;50.782;6.074;2023-05-08T03:09:46;99927.91;;;14.89;100.00
24858;BME280;12935;50.782;6.074;2023-05-08T03:12:21;99922.88;;;14.80;100.00
24858;BME280;12935;50.782;6.074;2023-05-08T03:15:03;99915.50;;;14.73;100.00
24858;BME280;12935;50.782;6.074;2023-05-08T03:17:32;99918.25;;;14.73;100.00
24858;BME280;12935;50.782;6.074;2023-05-08T03:20:03;99921.78;;;14.74;100.00
24858;BME280;12935;50.782;6.074;2023-05-08T03:22:31;99918.66;;;14.72;100.00
24858;BME280;12935;50.782;6.074;2023-05-08T03:24:59;99915.50;;;14.73;100.00
24858;BME280;12935;50.782;6.074;2023-05-08T03:27:27;99910.09;;;14.66;100.00
24858;BME280;12935;50.782;6.074;2023-05-08T03:29:54;99908.53;;;14.65;100.00
24858;BME280;12935;50.782;6.074;2023-05-08T03:32:22;99912.56;;;14.57;100.00
24858;BME280;12935;50.782;6.074;2023-05-08T03:34:48;99918.47;;;14.56;100.00
24858;BME280;12935;50.782;6.074;2023-05-08T03:37:15;99913.03;;;14.49;100.00
24858;BME280;12935;50.782;6.074;2023-05-08T03:39:41;99917.72;;;14.52;100.00
24858;BME280;12935;50.782;6.074;2023-05-08T03:42:06;99915.00;;;14.48;100.00
24858;BME280;12935;50.782;6.074;2023-05-08T03:44:32;99923.31;;;14.45;100.00
24858;BME280;12935;50.782;6.074;2023-05-08T03:46:58;99918.63;;;14.38;100.00
24858;BME280;12935;50.782;6.074;2023-05-08T03:49:24;99924.53;;;14.40;100.00
24858;BME280;12935;50.782;6.074;2023-05-08T03:51:52;99908.81;;;14.41;100.00
24858;BME280;12935;50.782;6.074;2023-05-08T03:54:19;99915.13;;;14.34;100.00
24858;BME280;12935;50.782;6.074;2023-05-08T03:56:49;99906.97;;;14.27;100.00
24858;BME280;12935;50.782;6.074;2023-05-08T03:59:37;99912.06;;;14.28;100.00
24858;BME280;12935;50.782;6.074;2023-05-08T04:04:54;99904.34;;;14.16;100.00
24858;BME280;12935;50.782;6.074;2023-05-08T04:07:58;99912.53;;;14.20;100.00
24858;BME280;12935;50.782;6.074;2023-05-08T04:10:32;99919.69;;;14.10;100.00
24858;BME280;12935;50.782;6.074;2023-05-08T04:13:09;99913.38;;;14.13;100.00
24858;BME280;12935;50.782;6.074;2023-05-08T04:16:06;99913.78;;;14.15;100.00
24858;BME280;12935;50.782;6.074;2023-05-08T04:18:36;99902.44;;;14.10;100.00
24858;BME280;12935;50.782;6.074;2023-05-08T04:21:07;99904.00;;;14.11;100.00
24858;BME280;12935;50.782;6.074;2023-05-08T04:23:34;99902.41;;;14.13;100.00
24858;BME280;12935;50.782;6.074;2023-05-08T04:26:01;99900.03;;;14.15;100.00
24858;BME280;12935;50.782;6.074;2023-05-08T04:28:27;99908.22;;;14.19;100.00
24858;BME280;12935;50.782;6.074;2023-05-08T04:30:54;99904.34;;;14.16;100.00
24858;BME280;12935;50.782;6.074;2023-05-08T04:33:20;99899.59;;;14.17;100.00
24858;BME280;12935;50.782;6.074;2023-05-08T04:35:46;99905.47;;;14.19;100.00
24858;BME280;12935;50.782;6.074;2023-05-08T04:38:11;99909.84;;;14.16;100.00
24858;BME280;12935;50.782;6.074;2023-05-08T04:40:37;99908.69;;;14.14;100.00
24858;BME280;12935;50.782;6.074;2023-05-08T04:43:02;99910.25;;;14.15;100.00
24858;BME280;12935;50.782;6.074;2023-05-08T04:45:27;99920.41;;;14.18;100.00
24858;BME280;12935;50.782;6.074;2023-05-08T04:47:52;99912.16;;;14.18;100.00
24858;BME280;12935;50.782;6.074;2023-05-08T04:50:18;99912.50;;;14.23;100.00
24858;BME280;12935;50.782;6.074;2023-05-08T04:52:44;99919.53;;;14.28;100.00
24858;BME280;12935;50.782;6.074;2023-05-08T04:55:10;99923.47;;;14.27;100.00
24858;BME280;12935;50.782;6.074;2023-05-08T04:57:35;99924.63;;;14.29;100.00
24858;BME280;12935;50.782;6.074;2023-05-08T05:00:01;99923.44;;;14.30;100.00
24858;BME280;12935;50.782;6.074;2023-05-08T05:02:26;99927.75;;;14.31;100.00
24858;BME280;12935;50.782;6.074;2023-05-08T05:04:51;99923.03;;;14.32;100.00
24858;BME280;12935;50.782;6.074;2023-05-08T05:07:17;99921.09;;;14.29;100.00
24858;BME280;12935;50.782;6.074;2023-05-08T05:09:43;99929.75;;;14.27;100.00
24858;BME280;12935;50.782;6.074;2023-05-08T05:12:08;99935.16;;;14.34;100.00
24858;BME280;12935;50.782;6.074;2023-05-08T05:14:33;99933.94;;;14.43;100.00
24858;BME280;12935;50.782;6.074;2023-05-08T05:16:59;99935.47;;;14.47;100.00
24858;BME280;12935;50.782;6.074;2023-05-08T05:19:24;99939.25;;;14.60;100.00
24858;BME280;12935;50.782;6.074;2023-05-08T05:21:49;99940.31;;;14.70;100.00
24858;BME280;12935;50.782;6.074;2023-05-08T05:24:15;99948.94;;;14.72;100.00
24858;BME280;12935;50.782;6.074;2023-05-08T05:26:41;99945.25;;;14.82;100.00
24858;BME280;12935;50.782;6.074;2023-05-08T05:29:06;99941.66;;;14.89;100.00
24858;BME280;12935;50.782;6.074;2023-05-08T05:31:32;99946.72;;;14.94;100.00
24858;BME280;12935;50.782;6.074;2023-05-08T05:33:57;99947.72;;;15.07;100.00
24858;BME280;12935;50.782;6.074;2023-05-08T05:36:23;99950.06;;;15.08;100.00
24858;BME280;12935;50.782;6.074;2023-05-08T05:38:48;99954.69;;;15.15;100.00
24858;BME280;12935;50.782;6.074;2023-05-08T05:41:13;99952.41;;;15.10;100.00
24858;BME280;12935;50.782;6.074;2023-05-08T05:43:39;99953.59;;;15.09;100.00
24858;BME280;12935;50.782;6.074;2023-05-08T05:46:05;99957.94;;;15.06;100.00
24858;BME280;12935;50.782;6.074;2023-05-08T05:48:31;99969.22;;;15.16;100.00
24858;BME280;12935;50.782;6.074;2023-05-08T05:50:56;99966.25;;;15.33;100.00
24858;BME280;12935;50.782;6.074;2023-05-08T05:53:22;99963.28;;;15.48;100.00
24858;BME280;12935;50.782;6.074;2023-05-08T05:55:47;99959.03;;;15.43;100.00
24858;BME280;12935;50.782;6.074;2023-05-08T05:58:12;99964.06;;;15.48;100.00
24858;BME280;12935;50.782;6.074;2023-05-08T06:00:37;99981.59;;;15.61;100.00
24858;BME280;12935;50.782;6.074;2023-05-08T06:03:03;99965.88;;;15.62;100.00
24858;BME280;12935;50.782;6.074;2023-05-08T06:05:29;99975.03;;;15.55;100.00
24858;BME280;12935;50.782;6.074;2023-05-08T06:07:54;99976.50;;;15.60;100.00
24858;BME280;12935;50.782;6.074;2023-05-08T06:10:21;99969.44;;;15.59;100.00
24858;BME280;12935;50.782;6.074;2023-05-08T06:12:46;99974.00;;;15.72;100.00
24858;BME280;12935;50.782;6.074;2023-05-08T06:15:12;99979.91;;;15.71;100.00
24858;BME280;12935;50.782;6.074;2023-05-08T06:17:39;99985.00;;;15.72;100.00
24858;BME280;12935;50.782;6.074;2023-05-08T06:20:05;99976.78;;;15.69;100.00
24858;BME280;12935;50.782;6.074;2023-05-08T06:22:30;99986.66;;;15.66;100.00
24858;BME280;12935;50.782;6.074;2023-05-08T06:24:56;99985.16;;;15.62;100.00
24858;BME280;12935;50.782;6.074;2023-05-08T06:27:21;99991.63;;;15.75;100.00
24858;BME280;12935;50.782;6.074;2023-05-08T06:29:47;99985.72;;;15.76;100.00
24858;BME280;12935;50.782;6.074;2023-05-08T06:32:16;99998.97;;;15.85;100.00
24858;BME280;12935;50.782;6.074;2023-05-08T06:34:41;99992.28;;;15.86;100.00
24858;BME280;12935;50.782;6.074;2023-05-08T06:37:06;99989.16;;;15.84;100.00
24858;BME280;12935;50.782;6.074;2023-05-08T06:39:31;99996.22;;;15.85;100.00
24858;BME280;12935;50.782;6.074;2023-05-08T06:41:57;99994.72;;;15.81;100.00
24858;BME280;12935;50.782;6.074;2023-05-08T06:44:22;99991.72;;;15.71;100.00
24858;BME280;12935;50.782;6.074;2023-05-08T06:46:47;99987.84;;;15.65;100.00
24858;BME280;12935;50.782;6.074;2023-05-08T06:49:13;99997.31;;;15.64;100.00
24858;BME280;12935;50.782;6.074;2023-05-08T06:51:38;99995.63;;;15.74;100.00
24858;BME280;12935;50.782;6.074;2023-05-08T06:54:03;99999.13;;;15.74;100.00
24858;BME280;12935;50.782;6.074;2023-05-08T06:56:35;99993.19;;;15.76;100.00
24858;BME280;12935;50.782;6.074;2023-05-08T06:59:00;100000.28;;;15.77;100.00
24858;BME280;12935;50.782;6.074;2023-05-08T07:01:25;100011.28;;;15.77;100.00
24858;BME280;12935;50.782;6.074;2023-05-08T07:03:51;100003.97;;;15.67;100.00
24858;BME280;12935;50.782;6.074;2023-05-08T07:06:16;100005.63;;;15.61;100.00
24858;BME280;12935;50.782;6.074;2023-05-08T07:08:41;100004.81;;;15.64;100.00
24858;BME280;12935;50.782;6.074;2023-05-08T07:11:07;99999.28;;;15.64;100.00
24858;BME280;12935;50.782;6.074;2023-05-08T07:13:34;100002.72;;;15.71;100.00
24858;BME280;12935;50.782;6.074;2023-05-08T07:15:59;100003.09;;;15.73;100.00
24858;BME280;12935;50.782;6.074;2023-05-08T07:18:25;100000.34;;;15.73;100.00
24858;BME280;12935;50.782;6.074;2023-05-08T07:20:50;100008.50;;;15.81;100.00
24858;BME280;12935;50.782;6.074;2023-05-08T07:23:15;100013.63;;;15.78;100.00
24858;BME280;12935;50.782;6.074;2023-05-08T07:25:41;100012.41;;;15.83;100.00
24858;BME280;12935;50.782;6.074;2023-05-08T07:28:06;100013.19;;;15.84;100.00
24858;BME280;12935;50.782;6.074;2023-05-08T07:30:32;100013.19;;;15.84;100.00
24858;BME280;12935;50.782;6.074;2023-05-08T07:32:57;100010.88;;;15.78;100.00
24858;BME280;12935;50.782;6.074;2023-05-08T07:35:23;100009.69;;;15.79;100.00
24858;BME280;12935;50.782;6.074;2023-05-08T07:37:48;100001.75;;;15.85;100.00
24858;BME280;12935;50.782;6.074;2023-05-08T07:40:14;100010.63;;;15.96;100.00
24858;BME280;12935;50.782;6.074;2023-05-08T07:42:43;100019.63;;;16.00;100.00
24858;BME280;12935;50.782;6.074;2023-05-08T07:45:09;100022.00;;;15.98;100.00
24858;BME280;12935;50.782;6.074;2023-05-08T07:47:35;100024.34;;;16.00;100.00
24858;BME280;12935;50.782;6.074;2023-05-08T07:50:01;100030.09;;;16.09;100.00
24858;BME280;12935;50.782;6.074;2023-05-08T07:52:26;100024.44;;;16.20;100.00
24858;BME280;12935;50.782;6.074;2023-05-08T07:54:51;100033.25;;;16.34;100.00
24858;BME280;12935;50.782;6.074;2023-05-08T07:57:17;100032.38;;;16.64;100.00
24858;BME280;12935;50.782;6.074;2023-05-08T07:59:42;100030.75;;;16.67;100.00
24858;BME280;12935;50.782;6.074;2023-05-08T08:02:07;100023.03;;;16.78;100.00
24858;BME280;12935;50.782;6.074;2023-05-08T08:04:33;100022.69;;;16.76;100.00
24858;BME280;12935;50.782;6.074;2023-05-08T08:06:58;100026.78;;;16.68;100.00
24858;BME280;12935;50.782;6.074;2023-05-08T08:09:24;100030.81;;;16.63;100.00
24858;BME280;12935;50.782;6.074;2023-05-08T08:11:49;100028.63;;;16.51;100.00
24858;BME280;12935;50.782;6.074;2023-05-08T08:14:15;100030.47;;;16.58;100.00
24858;BME280;12935;50.782;6.074;2023-05-08T08:16:40;100032.22;;;16.48;100.00
24858;BME280;12935;50.782;6.074;2023-05-08T08:19:06;100037.50;;;16.39;100.00
24858;BME280;12935;50.782;6.074;2023-05-08T08:21:32;100033.66;;;16.33;100.00
24858;BME280;12935;50.782;6.074;2023-05-08T08:23:57;100029.63;;;16.37;100.00
24858;BME280;12935;50.782;6.074;2023-05-08T08:26:23;100029.47;;;16.48;100.00
24858;BME280;12935;50.782;6.074;2023-05-08T08:28:49;100019.00;;;16.59;100.00
24858;BME280;12935;50.782;6.074;2023-05-08T08:31:15;100028.00;;;16.67;100.00
24858;BME280;12935;50.782;6.074;2023-05-08T08:33:41;100025.09;;;16.74;100.00
24858;BME280;12935;50.782;6.074;2023-05-08T08:36:11;100021.28;;;16.88;100.00
24858;BME280;12935;50.782;6.074;2023-05-08T08:38:37;100025.53;;;17.12;100.00
24858;BME280;12935;50.782;6.074;2023-05-08T08:41:02;100025.13;;;17.13;100.00
24858;BME280;12935;50.782;6.074;2023-05-08T08:43:28;100027.16;;;16.90;100.00
24858;BME280;12935;50.782;6.074;2023-05-08T08:45:53;100024.81;;;16.88;100.00
24858;BME280;12935;50.782;6.074;2023-05-08T08:48:19;100026.72;;;16.91;100.00
24858;BME280;12935;50.782;6.074;2023-05-08T08:50:49;100028.66;;;16.94;100.00
24858;BME280;12935;50.782;6.074;2023-05-08T08:53:28;100032.69;;;17.09;100.00
24858;BME280;12935;50.782;6.074;2023-05-08T08:55:57;100021.66;;;17.09;100.00
24858;BME280;12935;50.782;6.074;2023-05-08T08:58:32;100025.09;;;17.33;100.00
24858;BME280;12935;50.782;6.074;2023-05-08T09:01:01;100022.84;;;17.28;100.00
24858;BME280;12935;50.782;6.074;2023-05-08T09:03:29;100015.69;;;17.11;100.00
24858;BME280;12935;50.782;6.074;2023-05-08T09:05:58;100017.09;;;17.39;100.00
24858;BME280;12935;50.782;6.074;2023-05-08T09:08:25;100014.75;;;17.37;100.00
24858;BME280;12935;50.782;6.074;2023-05-08T09:10:52;100017.44;;;17.41;100.00
24858;BME280;12935;50.782;6.074;2023-05-08T09:13:18;100015.63;;;17.70;100.00
24858;BME280;12935;50.782;6.074;2023-05-08T09:15:44;100012.97;;;17.83;100.00
24858;BME280;12935;50.782;6.074;2023-05-08T09:18:09;100005.91;;;18.14;100.00
24858;BME280;12935;50.782;6.074;2023-05-08T09:20:35;100015.91;;;18.57;100.00
24858;BME280;12935;50.782;6.074;2023-05-08T09:23:00;100007.66;;;18.86;100.00
24858;BME280;12935;50.782;6.074;2023-05-08T09:25:46;100010.53;;;18.95;100.00
24858;BME280;12935;50.782;6.074;2023-05-08T09:28:22;100011.41;;;18.92;100.00
24858;BME280;12935;50.782;6.074;2023-05-08T09:30:49;100004.63;;;18.80;100.00
24858;BME280;12935;50.782;6.074;2023-05-08T09:33:16;100011.41;;;18.47;100.00
24858;BME280;12935;50.782;6.074;2023-05-08T09:35:41;100009.94;;;18.42;100.00
24858;BME280;12935;50.782;6.074;2023-05-08T09:38:06;100005.31;;;18.23;100.00
24858;BME280;12935;50.782;6.074;2023-05-08T09:40:32;100003.88;;;18.47;100.00
24858;BME280;12935;50.782;6.074;2023-05-08T09:43:11;100004.59;;;19.09;100.00
24858;BME280;12935;50.782;6.074;2023-05-08T09:45:37;100000.94;;;19.54;100.00
24858;BME280;12935;50.782;6.074;2023-05-08T09:48:04;100006.91;;;20.28;100.00
24858;BME280;12935;50.782;6.074;2023-05-08T09:50:30;100005.06;;;20.82;100.00
24858;BME280;12935;50.782;6.074;2023-05-08T09:52:57;100017.28;;;20.84;100.00
24858;BME280;12935;50.782;6.074;2023-05-08T09:55:22;100014.44;;;20.75;100.00
24858;BME280;12935;50.782;6.074;2023-05-08T09:57:56;100013.59;;;19.93;100.00
24858;BME280;12935;50.782;6.074;2023-05-08T10:00:23;100008.69;;;19.46;100.00
24858;BME280;12935;50.782;6.074;2023-05-08T10:03:14;100008.66;;;19.34;100.00
24858;BME280;12935;50.782;6.074;2023-05-08T10:05:40;100017.25;;;20.03;100.00
24858;BME280;12935;50.782;6.074;2023-05-08T10:08:22;100012.63;;;20.34;100.00
24858;BME280;12935;50.782;6.074;2023-05-08T10:10:49;100002.91;;;20.64;100.00
24858;BME280;12935;50.782;6.074;2023-05-08T10:13:14;100006.56;;;20.95;100.00
24858;BME280;12935;50.782;6.074;2023-05-08T10:15:43;100005.66;;;21.42;100.00
24858;BME280;12935;50.782;6.074;2023-05-08T10:18:09;99996.81;;;21.65;100.00
24858;BME280;12935;50.782;6.074;2023-05-08T10:20:40;99999.31;;;20.98;100.00
24858;BME280;12935;50.782;6.074;2023-05-08T10:23:07;100005.53;;;20.33;100.00
24858;BME280;12935;50.782;6.074;2023-05-08T10:25:43;99992.84;;;19.98;100.00
24858;BME280;12935;50.782;6.074;2023-05-08T10:28:15;99998.06;;;19.70;100.00
24858;BME280;12935;50.782;6.074;2023-05-08T10:30:46;99999.19;;;19.60;100.00
24858;BME280;12935;50.782;6.074;2023-05-08T10:33:14;100005.88;;;19.34;100.00
24858;BME280;12935;50.782;6.074;2023-05-08T10:35:40;99999.38;;;18.99;100.00
24858;BME280;12935;50.782;6.074;2023-05-08T10:38:09;100000.94;;;19.00;100.00
24858;BME280;12935;50.782;6.074;2023-05-08T10:40:36;99997.91;;;18.94;100.00
24858;BME280;12935;50.782;6.074;2023-05-08T10:43:02;99997.72;;;19.01;100.00
24858;BME280;12935;50.782;6.074;2023-05-08T10:45:28;100004.81;;;19.02;100.00
24858;BME280;12935;50.782;6.074;2023-05-08T10:48:07;99985.88;;;18.72;100.00
24858;BME280;12935;50.782;6.074;2023-05-08T10:50:41;99989.72;;;18.45;100.00
24858;BME280;12935;50.782;6.074;2023-05-08T10:53:18;99992.91;;;18.60;100.00
24858;BME280;12935;50.782;6.074;2023-05-08T10:55:46;99999.88;;;18.81;100.00
24858;BME280;12935;50.782;6.074;2023-05-08T10:58:27;99994.94;;;19.01;100.00
24858;BME280;12935;50.782;6.074;2023-05-08T11:03:29;99998.28;;;19.63;100.00
24858;BME280;12935;50.782;6.074;2023-05-08T11:05:56;99990.13;;;19.31;100.00
24858;BME280;12935;50.782;6.074;2023-05-08T11:08:23;99995.69;;;19.43;100.00
24858;BME280;12935;50.782;6.074;2023-05-08T11:10:51;99986.09;;;19.60;100.00
24858;BME280;12935;50.782;6.074;2023-05-08T11:13:44;99977.09;;;19.56;100.00
24858;BME280;12935;50.782;6.074;2023-05-08T11:16:11;99974.44;;;19.53;100.00
24858;BME280;12935;50.782;6.074;2023-05-08T11:18:36;99978.53;;;19.36;100.00
24858;BME280;12935;50.782;6.074;2023-05-08T11:21:13;99982.59;;;19.31;100.00
24858;BME280;12935;50.782;6.074;2023-05-08T11:23:39;99973.97;;;19.42;100.00
24858;BME280;12935;50.782;6.074;2023-05-08T11:26:11;99977.22;;;19.66;100.00
24858;BME280;12935;50.782;6.074;2023-05-08T11:28:39;99969.88;;;19.72;100.00
24858;BME280;12935;50.782;6.074;2023-05-08T11:31:06;99978.31;;;20.53;100.00
24858;BME280;12935;50.782;6.074;2023-05-08T11:33:35;99975.19;;;21.08;100.00
24858;BME280;12935;50.782;6.074;2023-05-08T11:36:14;99967.09;;;21.53;100.00
24858;BME280;12935;50.782;6.074;2023-05-08T11:38:41;99959.31;;;21.79;100.00
24858;BME280;12935;50.782;6.074;2023-05-08T11:41:20;99959.44;;;21.76;100.00
24858;BME280;12935;50.782;6.074;2023-05-08T11:46:16;99952.16;;;22.18;99.42
24858;BME280;12935;50.782;6.074;2023-05-08T11:48:43;99963.78;;;22.53;96.82
24858;BME280;12935;50.782;6.074;2023-05-08T11:51:09;99954.34;;;22.42;95.34
24858;BME280;12935;50.782;6.074;2023-05-08T11:53:35;99954.38;;;22.51;96.65
24858;BME280;12935;50.782;6.074;2023-05-08T11:56:01;99946.59;;;22.27;97.60
24858;BME280;12935;50.782;6.074;2023-05-08T11:58:27;99951.25;;;22.39;95.20
24858;BME280;12935;50.782;6.074;2023-05-08T12:00:53;99961.00;;;22.35;96.37
24858;BME280;12935;50.782;6.074;2023-05-08T12:03:23;99958.19;;;22.17;99.53
24858;BME280;12935;50.782;6.074;2023-05-08T12:05:54;99958.66;;;22.24;99.17
24858;BME280;12935;50.782;6.074;2023-05-08T12:08:20;99947.63;;;23.21;94.20
24858;BME280;12935;50.782;6.074;2023-05-08T12:13:22;99954.63;;;23.07;89.28
24858;BME280;12935;50.782;6.074;2023-05-08T12:15:49;99954.50;;;22.38;94.10
24858;BME280;12935;50.782;6.074;2023-05-08T12:18:16;99952.78;;;22.13;100.00
24858;BME280;12935;50.782;6.074;2023-05-08T12:20:42;99955.38;;;21.58;100.00
24858;BME280;12935;50.782;6.074;2023-05-08T12:23:08;99951.03;;;21.26;100.00
24858;BME280;12935;50.782;6.074;2023-05-08T12:25:38;99953.81;;;21.26;100.00
24858;BME280;12935;50.782;6.074;2023-05-08T12:28:06;99949.75;;;20.96;100.00
24858;BME280;12935;50.782;6.074;2023-05-08T12:30:32;99947.72;;;20.88;100.00
24858;BME280;12935;50.782;6.074;2023-05-08T12:32:58;99946.41;;;20.80;100.00
24858;BME280;12935;50.782;6.074;2023-05-08T12:35:24;99954.09;;;20.54;100.00
24858;BME280;12935;50.782;6.074;2023-05-08T12:37:50;99950.03;;;20.89;100.00
24858;BME280;12935;50.782;6.074;2023-05-08T12:40:31;99952.78;;;21.11;100.00
24858;BME280;12935;50.782;6.074;2023-05-08T12:42:56;99953.16;;;20.91;100.00
24858;BME280;12935;50.782;6.074;2023-05-08T12:45:26;99959.34;;;20.74;100.00
24858;BME280;12935;50.782;6.074;2023-05-08T12:47:57;99948.75;;;20.81;100.00
24858;BME280;12935;50.782;6.074;2023-05-08T12:50:23;99938.81;;;20.93;100.00
24858;BME280;12935;50.782;6.074;2023-05-08T12:52:51;99943.19;;;20.59;100.00
24858;BME280;12935;50.782;6.074;2023-05-08T12:55:24;99941.31;;;20.78;100.00
24858;BME280;12935;50.782;6.074;2023-05-08T12:57:57;99937.56;;;20.72;100.00
24858;BME280;12935;50.782;6.074;2023-05-08T13:00:23;99937.97;;;20.83;100.00
24858;BME280;12935;50.782;6.074;2023-05-08T13:02:54;99934.44;;;21.14;100.00
24858;BME280;12935;50.782;6.074;2023-05-08T13:05:21;99926.25;;;21.41;100.00
24858;BME280;12935;50.782;6.074;2023-05-08T13:07:48;99925.88;;;21.21;100.00
24858;BME280;12935;50.782;6.074;2023-05-08T13:10:13;99927.75;;;21.02;100.00
24858;BME280;12935;50.782;6.074;2023-05-08T13:12:39;99931.06;;;21.19;100.00
24858;BME280;12935;50.782;6.074;2023-05-08T13:15:04;99925.72;;;21.24;100.00
24858;BME280;12935;50.782;6.074;2023-05-08T13:17:30;99926.09;;;21.35;100.00
24858;BME280;12935;50.782;6.074;2023-05-08T13:19:55;99934.91;;;21.43;100.00
24858;BME280;12935;50.782;6.074;2023-05-08T13:22:21;99922.88;;;21.46;100.00
24858;BME280;12935;50.782;6.074;2023-05-08T13:24:50;99917.91;;;21.41;100.00
24858;BME280;12935;50.782;6.074;2023-05-08T13:27:15;99916.97;;;21.35;100.00